Flight Track Log - Related Links

Times and Time Zones

All times are in EDT time to prevent confusion due to time zone crossing. See the SKW5197 flight status page for this flight to view local times or setup timezone preferences in your user account.

Time Position Orientation Groundspeed Altitude Reporting Facility
EDT Latitude Longitude Course Direction KTS MPH feet Rate Location/Type
Thu 10:39:23 AM 33.9339 -118.4450 232° Southwest 169 194 1,600  Level Los Angeles Center
Thu 10:40:25 AM 33.8833 -118.5233 232° Southwest 253 291 4,300 2,226 Climbing Los Angeles Center
Thu 10:41:27 AM 33.8189 -118.5619 206° Southwest 283 326 6,200 2,274 Climbing Los Angeles Center
Thu 10:42:29 AM 33.7433 -118.5389 166° South 285 328 9,000 2,419 Climbing Los Angeles Center
Thu 10:43:31 AM 33.6858 -118.4822 141° Southeast 292 336 11,200 2,274 Climbing Los Angeles Center
Thu 10:44:33 AM 33.6506 -118.3658 110° East 311 358 13,700 2,098 Climbing Los Angeles Center
Thu 10:45:34 AM 33.6436 -118.2792 95° East 329 379 15,500 1,951 Climbing Los Angeles Center
Thu 10:46:36 AM 33.6444 -118.1478 90° East 334 384 17,700 1,887 Climbing Los Angeles Center
Thu 10:47:38 AM 33.6447 -118.0342 90° East 341 392 19,400 1,597 Climbing Los Angeles Center
Thu 10:48:40 AM 33.6444 -117.9133 90° East 357 411 21,000 1,742 Climbing Los Angeles Center
Thu 10:49:42 AM 33.6433 -117.7689 90° East 363 418 23,000 1,680 Climbing Los Angeles Center
Thu 10:50:45 AM 33.6431 -117.6431 90° East 376 433 24,500 1,306 Climbing Los Angeles Center
Thu 10:51:46 AM 33.6419 -117.5142 91° East 386 444 25,700 1,022 Climbing Los Angeles Center
Thu 10:53:00 AM 33.6414 -117.3811 90° East 399 459 26,800 1,147 Climbing Los Angeles Center
Thu 10:54:02 AM 33.6400 -117.2172 91° East 410 472 28,300 1,355 Climbing Los Angeles Center
Thu 10:55:04 AM 33.6386 -117.0486 91° East 424 488 29,600 1,161 Climbing Los Angeles Center
Thu 10:56:06 AM 33.6383 -116.9058 90° East 430 495 30,700 1,000 Climbing Los Angeles Center
Thu 10:58:10 AM 33.6350 -116.6008 91° East 441 507 32,700 935 Climbing Los Angeles Center
Thu 10:59:12 AM 33.6617 -116.4547 78° East 456 525 33,600 871 Climbing Los Angeles Center
Thu 11:00:14 AM 33.6986 -116.3114 73° East 449 517 34,500 677 Climbing Los Angeles Center
Thu 11:01:16 AM 33.7353 -116.1672 73° East 452 520 35,000 221 Climbing Los Angeles Center
Thu 11:02:30 AM 33.7711 -116.0228 73° East 451 519 35,000 263 Level Los Angeles Center
Thu 11:03:33 AM 33.8150 -115.8489 73° East 453 521 35,600 816 Climbing Los Angeles Center
Thu 11:04:35 AM 33.8589 -115.6744 73° East 454 522 36,700 919 Climbing Los Angeles Center
Thu 11:05:37 AM 33.8939 -115.5292 74° East 452 520 37,500 823 Climbing Los Angeles Center
Thu 11:06:39 AM 33.9300 -115.3847 73° East 450 518 38,400 726 Climbing Los Angeles Center
Thu 11:07:41 AM 33.9639 -115.2444 74° East 442 509 39,000 290 Climbing Los Angeles Center
Thu 11:08:43 AM 33.9994 -115.1008 73° East 446 513 39,000  Level Los Angeles Center
Thu 11:09:47 AM 34.0336 -114.9572 74° East 447 514 39,000  Level Los Angeles Center
Thu 11:10:47 AM 34.0767 -114.7844 73° East 449 517 39,000  Level Los Angeles Center
Thu 11:11:49 AM 34.1047 -114.6372 77° East 448 516 39,000  Level Los Angeles Center
Thu 11:12:51 AM 34.1161 -114.4889 85° East 445 512 39,000  Level Los Angeles Center
Thu 11:13:55 AM 34.1272 -114.3406 85° East 444 511 39,000  Level Los Angeles Center
Thu 11:14:55 AM 34.1392 -114.1931 84° East 443 510 39,000  Level Los Angeles Center
Thu 11:15:26 AM 34.1467 -114.1031 84° East 445 512 39,000  Level Albuquerque Center
Thu 11:16:28 AM 34.1589 -113.9550 84° East 443 510 39,000  Level Albuquerque Center
Thu 11:17:30 AM 34.1697 -113.8067 85° East 444 511 39,000  Level Albuquerque Center
Thu 11:18:32 AM 34.1794 -113.6583 85° East 443 510 39,000  Level Albuquerque Center
Thu 11:19:34 AM 34.1931 -113.4861 84° East 444 511 39,000  Level Albuquerque Center
Thu 11:20:36 AM 34.2025 -113.3381 86° East 443 510 39,000  Level Albuquerque Center
Thu 11:21:38 AM 34.2131 -113.1894 85° East 445 512 39,000  Level Albuquerque Center
Thu 11:22:40 AM 34.2222 -113.0403 86° East 446 513 39,000  Level Albuquerque Center
Thu 11:23:42 AM 34.2331 -112.8919 85° East 444 511 39,000  Level Albuquerque Center
Thu 11:24:44 AM 34.2428 -112.7439 85° East 443 510 39,000  Level Albuquerque Center
Thu 11:25:46 AM 34.2533 -112.5656 86° East 444 511 39,000  Level Albuquerque Center
Thu 11:26:48 AM 34.2636 -112.4169 85° East 443 510 39,000  Level Albuquerque Center
Thu 11:27:50 AM 34.2728 -112.2678 86° East 444 511 39,000  Level Albuquerque Center
Thu 11:29:00 AM 34.2808 -112.1039 87° East  Level FlightAware Approximate
Thu 11:29:54 AM 34.2914 -111.9672 87° East 446 513 39,000  Level Albuquerque Center
Thu 11:30:56 AM 34.3008 -111.8153 86° East 448 516 39,000  Level Albuquerque Center
Thu 11:31:58 AM 34.3089 -111.6636 86° East 448 516 39,000  Level Albuquerque Center
Thu 11:33:00 AM 34.3169 -111.5131 86° East 446 513 39,000  Level Albuquerque Center
Thu 11:34:02 AM 34.3269 -111.3356 86° East 442 509 39,000  Level Albuquerque Center
Thu 11:35:04 AM 34.3339 -111.1894 87° East 437 503 39,000  Level Albuquerque Center
Thu 11:36:06 AM 34.3414 -111.0428 86° East 437 503 39,000  Level Albuquerque Center
Thu 11:37:08 AM 34.3489 -110.8961 86° East 437 503 39,000  Level Albuquerque Center
Thu 11:38:10 AM 34.3569 -110.7478 86° East 440 506 39,000 -387 Level Albuquerque Center
Thu 11:39:12 AM 34.3639 -110.5969 87° East 446 513 38,200 -1,016 Descending Albuquerque Center
Thu 11:40:14 AM 34.3728 -110.4161 87° East 450 518 36,900 -1,065 Descending Albuquerque Center
Thu 11:41:16 AM 34.3786 -110.2719 87° East 444 511 36,000 -968 Descending Albuquerque Center
Thu 11:42:18 AM 34.3861 -110.1067 87° East 441 507 34,900 -1,016 Descending Albuquerque Center
Thu 11:43:20 AM 34.3925 -109.9619 87° East 448 516 33,900 -968 Descending Albuquerque Center
Thu 11:44:22 AM 34.3986 -109.8172 87° East 450 518 32,900 -1,016 Descending Albuquerque Center
Thu 11:45:24 AM 34.4042 -109.6481 88° East 451 519 31,800 -919 Descending Albuquerque Center
Thu 11:46:26 AM 34.4111 -109.5017 87° East 454 522 31,000 -387 Descending Albuquerque Center
Thu 11:47:28 AM 34.4175 -109.3317 87° East 454 522 31,000 -97 Level Albuquerque Center
Thu 11:48:30 AM 34.4231 -109.1911 87° East 446 513 30,800 -629 Descending Albuquerque Center
Thu 11:49:32 AM 34.4406 -109.0214 83° East 451 519 29,700 -1,016 Descending Albuquerque Center
Thu 11:50:34 AM 34.4586 -108.8775 81° East 454 522 28,700 -1,065 Descending Albuquerque Center
Thu 11:51:36 AM 34.4786 -108.7167 81° East 444 511 27,500 -1,016 Descending Albuquerque Center
Thu 11:52:38 AM 34.4950 -108.5850 81° East 430 495 26,600 -919 Descending Albuquerque Center
Thu 11:53:40 AM 34.5131 -108.4589 80° East 417 480 25,600 -1,065 Descending Albuquerque Center
Thu 11:54:42 AM 34.5403 -108.2975 78° East 409 471 24,400 -1,065 Descending Albuquerque Center
Thu 11:55:44 AM 34.5625 -108.1656 78° East 403 464 23,400 -968 Descending Albuquerque Center
Thu 11:56:46 AM 34.5853 -108.0353 78° East 398 458 22,400 -968 Descending Albuquerque Center
Thu 11:57:48 AM 34.6058 -107.9069 79° East 393 452 21,400 -677 Descending Albuquerque Center
Thu 11:58:50 AM 34.6311 -107.7836 76° East 382 440 21,000 -823 Descending Albuquerque Center
Thu 11:59:52 AM 34.6814 -107.6761 60° Northeast 370 426 19,700 -1,355 Descending Albuquerque Center
Thu 12:00:54 PM 34.7336 -107.5514 63° Northeast 351 404 18,200 -1,210 Descending Albuquerque Center
Thu 12:01:56 PM 34.7761 -107.4528 62° Northeast 335 386 17,200 -1,163 Descending Albuquerque Center
Thu 12:02:32 PM 34.7994 -107.3917 65° Northeast 315 362 16,300 -1,423 Descending Albuquerque Center
Thu 12:03:33 PM 34.8392 -107.2992 62° Northeast 310 357 14,900 -1,377 Descending Albuquerque Center
Thu 12:04:34 PM 34.8789 -107.2064 62° Northeast 306 352 13,500 -1,512 Descending Albuquerque Center
Thu 12:05:40 PM 34.9225 -107.0997 63° Northeast 307 353 11,700 -1,559 Descending Albuquerque Center
Thu 12:06:41 PM 34.9619 -107.0069 63° Northeast 307 353 10,200 -1,339 Descending Albuquerque Center
Thu 12:07:41 PM 35.0019 -106.9167 62° Northeast 300 345 9,000 -939 Descending Albuquerque Center
Thu 12:08:36 PM 35.0325 -106.8467 62° Northeast 243 280 8,400 -809 Descending Albuquerque Center
Thu 12:09:10 PM 35.0444 -106.8164 64° Northeast 261 300 7,800 -688 Descending Albuquerque Center
Thu 12:10:12 PM 35.0453 -106.7392 89° East 240 276 7,300 -839 Descending Albuquerque Center
Thu 12:10:43 PM 35.0442 -106.6933 92° East 215 247 6,500 -1,161 Descending Albuquerque Center
Thu 12:11:14 PM 35.0444 -106.6636 89° East 204 235 6,100 -787 Descending Albuquerque Center
Thu 12:11:44 PM 35.0442 -106.6439 91° East 131 151 5,700 -774 Descending Albuquerque Center
Thu 12:12:16 PM 35.0444 -106.6161 89° East 162 186 5,300 -750 Descending Albuquerque Center
Thu 12:14:00 PM 35.0402 -106.6092 39° Northeast  Level Estimated
Thu 12:21:00 PM 35.0402 -106.6092 39° Northeast  Level Estimated
Thu 12:22:00 PM 35.0402 -106.6092 39° Northeast  Level Estimated
Thu 12:23:00 PM 35.0402 -106.6092 39° Northeast  Level Estimated
Thu 12:24:00 PM 35.0402 -106.6092 39° Northeast  Level Estimated
Thu 12:25:00 PM 35.0402 -106.6092 39° Northeast  Level Estimated
Thu 12:26:00 PM 35.0402 -106.6092 39° Northeast  Level Estimated
Thu 12:27:00 PM 35.0402 -106.6092 39° Northeast  Level Estimated
Thu 12:28:00 PM 35.0402 -106.6092 39° Northeast  Level Estimated
Thu 12:29:00 PM 35.0402 -106.6092 39° Northeast  Level Estimated
Thu 12:30:00 PM 35.0402 -106.6092 39° Northeast  Level Estimated

Login

Don't have an account? Register now (free) for customized features, flight alerts, and more!